sensor_id;sensor_type;location;lat;lon;timestamp;pressure;altitude;pressure_sealevel;temperature;humidity
78825;BME280;68176;45.554;10.220;2024-01-27T00:00:25;100907.88;;;8.48;63.42
78825;BME280;68176;45.554;10.220;2024-01-27T00:02:54;100907.88;;;8.48;63.46
78825;BME280;68176;45.554;10.220;2024-01-27T00:05:24;100918.16;;;8.51;63.42
78825;BME280;68176;45.554;10.220;2024-01-27T00:07:55;100911.47;;;8.47;63.48
78825;BME280;68176;45.554;10.220;2024-01-27T00:10:25;100918.16;;;8.51;63.58
78825;BME280;68176;45.554;10.220;2024-01-27T00:12:55;100917.44;;;8.49;63.35
78825;BME280;68176;45.554;10.220;2024-01-27T00:15:24;100926.19;;;8.48;63.49
78825;BME280;68176;45.554;10.220;2024-01-27T00:17:55;100918.34;;;8.48;63.61
78825;BME280;68176;45.554;10.220;2024-01-27T00:20:24;100921.91;;;8.47;63.38
78825;BME280;68176;45.554;10.220;2024-01-27T00:22:55;100930.69;;;8.46;63.72
78825;BME280;68176;45.554;10.220;2024-01-27T00:25:25;100922.09;;;8.44;63.40
78825;BME280;68176;45.554;10.220;2024-01-27T00:27:55;100919.38;;;8.46;63.48
78825;BME280;68176;45.554;10.220;2024-01-27T00:30:25;100924.59;;;8.46;63.47
78825;BME280;68176;45.554;10.220;2024-01-27T00:32:55;100924.78;;;8.43;63.45
78825;BME280;68176;45.554;10.220;2024-01-27T00:35:25;100937.78;;;8.44;63.39
78825;BME280;68176;45.554;10.220;2024-01-27T00:37:55;100935.16;;;8.44;63.34
78825;BME280;68176;45.554;10.220;2024-01-27T00:40:25;100931.72;;;8.44;63.45
78825;BME280;68176;45.554;10.220;2024-01-27T00:42:55;100943.00;;;8.44;63.31
78825;BME280;68176;45.554;10.220;2024-01-27T00:45:25;100936.09;;;8.43;63.33
78825;BME280;68176;45.554;10.220;2024-01-27T00:47:55;100943.81;;;8.45;63.38
78825;BME280;68176;45.554;10.220;2024-01-27T00:50:25;100939.63;;;8.42;63.41
78825;BME280;68176;45.554;10.220;2024-01-27T00:52:55;100932.63;;;8.43;63.45
78825;BME280;68176;45.554;10.220;2024-01-27T00:55:25;100948.44;;;8.41;63.33
78825;BME280;68176;45.554;10.220;2024-01-27T00:57:55;100937.97;;;8.41;63.42
78825;BME280;68176;45.554;10.220;2024-01-27T01:00:25;100946.63;;;8.42;63.38
78825;BME280;68176;45.554;10.220;2024-01-27T01:02:55;100945.03;;;8.39;63.36
78825;BME280;68176;45.554;10.220;2024-01-27T01:05:25;100957.19;;;8.40;63.40
78825;BME280;68176;45.554;10.220;2024-01-27T01:07:55;100951.19;;;8.38;63.41
78825;BME280;68176;45.554;10.220;2024-01-27T01:10:25;100952.16;;;8.37;63.17
78825;BME280;68176;45.554;10.220;2024-01-27T01:12:55;100956.53;;;8.37;63.50
78825;BME280;68176;45.554;10.220;2024-01-27T01:15:25;100959.03;;;8.38;63.14
78825;BME280;68176;45.554;10.220;2024-01-27T01:17:55;100962.69;;;8.36;63.40
78825;BME280;68176;45.554;10.220;2024-01-27T01:20:25;100961.81;;;8.35;63.41
78825;BME280;68176;45.554;10.220;2024-01-27T01:22:55;100963.53;;;8.36;63.53
78825;BME280;68176;45.554;10.220;2024-01-27T01:25:25;100973.91;;;8.38;63.37
78825;BME280;68176;45.554;10.220;2024-01-27T01:27:55;100973.06;;;8.37;63.28
78825;BME280;68176;45.554;10.220;2024-01-27T01:30:25;100981.81;;;8.36;63.25
78825;BME280;68176;45.554;10.220;2024-01-27T01:32:55;100983.50;;;8.37;63.36
78825;BME280;68176;45.554;10.220;2024-01-27T01:35:25;100981.16;;;8.33;63.21
78825;BME280;68176;45.554;10.220;2024-01-27T01:37:55;100979.31;;;8.35;63.25
78825;BME280;68176;45.554;10.220;2024-01-27T01:40:25;100982.00;;;8.33;63.35
78825;BME280;68176;45.554;10.220;2024-01-27T01:42:55;100973.41;;;8.31;63.29
78825;BME280;68176;45.554;10.220;2024-01-27T01:45:25;100977.78;;;8.31;63.29
78825;BME280;68176;45.554;10.220;2024-01-27T01:47:55;100983.03;;;8.31;63.31
78825;BME280;68176;45.554;10.220;2024-01-27T01:50:25;100976.94;;;8.30;63.39
78825;BME280;68176;45.554;10.220;2024-01-27T01:52:55;100986.47;;;8.31;63.39
78825;BME280;68176;45.554;10.220;2024-01-27T01:55:25;100974.66;;;8.24;63.49
78825;BME280;68176;45.554;10.220;2024-01-27T01:57:55;100976.22;;;8.28;63.44
78825;BME280;68176;45.554;10.220;2024-01-27T02:00:25;100978.97;;;8.25;63.36
78825;BME280;68176;45.554;10.220;2024-01-27T02:02:55;100979.78;;;8.26;63.04
78825;BME280;68176;45.554;10.220;2024-01-27T02:05:25;100978.88;;;8.27;63.44
78825;BME280;68176;45.554;10.220;2024-01-27T02:07:55;100971.88;;;8.27;63.39
78825;BME280;68176;45.554;10.220;2024-01-27T02:10:25;100974.66;;;8.24;63.49
78825;BME280;68176;45.554;10.220;2024-01-27T02:12:55;100977.34;;;8.23;63.00
78825;BME280;68176;45.554;10.220;2024-01-27T02:15:25;100977.47;;;8.21;63.40
78825;BME280;68176;45.554;10.220;2024-01-27T02:17:55;100978.13;;;8.25;63.59
78825;BME280;68176;45.554;10.220;2024-01-27T02:20:25;100991.09;;;8.26;63.14
78825;BME280;68176;45.554;10.220;2024-01-27T02:22:56;100993.88;;;8.23;63.37
78825;BME280;68176;45.554;10.220;2024-01-27T02:25:25;100994.81;;;8.22;63.39
78825;BME280;68176;45.554;10.220;2024-01-27T02:27:55;100990.53;;;8.21;63.20
78825;BME280;68176;45.554;10.220;2024-01-27T02:30:25;100995.66;;;8.23;63.12
78825;BME280;68176;45.554;10.220;2024-01-27T02:32:56;101000.06;;;8.22;63.39
78825;BME280;68176;45.554;10.220;2024-01-27T02:35:26;101003.41;;;8.24;63.36
78825;BME280;68176;45.554;10.220;2024-01-27T02:37:55;100999.28;;;8.20;63.13
78825;BME280;68176;45.554;10.220;2024-01-27T02:40:25;100995.00;;;8.19;63.11
78825;BME280;68176;45.554;10.220;2024-01-27T02:42:55;100989.97;;;8.16;63.41
78825;BME280;68176;45.554;10.220;2024-01-27T02:45:26;100988.09;;;8.18;63.23
78825;BME280;68176;45.554;10.220;2024-01-27T02:47:55;100993.31;;;8.18;63.38
78825;BME280;68176;45.554;10.220;2024-01-27T02:50:25;100980.25;;;8.18;63.14
78825;BME280;68176;45.554;10.220;2024-01-27T02:52:55;100989.84;;;8.18;63.45
78825;BME280;68176;45.554;10.220;2024-01-27T02:55:25;100984.72;;;8.16;63.35
78825;BME280;68176;45.554;10.220;2024-01-27T02:57:55;100985.84;;;8.12;63.42
78825;BME280;68176;45.554;10.220;2024-01-27T03:00:26;100986.56;;;8.14;63.38
78825;BME280;68176;45.554;10.220;2024-01-27T03:02:55;100974.44;;;8.13;63.45
78825;BME280;68176;45.554;10.220;2024-01-27T03:05:26;100980.50;;;8.14;63.02
78825;BME280;68176;45.554;10.220;2024-01-27T03:07:56;100989.28;;;8.13;63.23
78825;BME280;68176;45.554;10.220;2024-01-27T03:10:25;100996.09;;;8.15;63.22
78825;BME280;68176;45.554;10.220;2024-01-27T03:12:56;100987.59;;;8.12;63.15
78825;BME280;68176;45.554;10.220;2024-01-27T03:15:25;100985.00;;;8.12;63.29
78825;BME280;68176;45.554;10.220;2024-01-27T03:17:56;100986.75;;;8.11;63.41
78825;BME280;68176;45.554;10.220;2024-01-27T03:20:26;100997.19;;;8.11;63.42
78825;BME280;68176;45.554;10.220;2024-01-27T03:22:56;100984.25;;;8.10;63.11
78825;BME280;68176;45.554;10.220;2024-01-27T03:25:26;100996.47;;;8.09;63.22
78825;BME280;68176;45.554;10.220;2024-01-27T03:27:55;100984.31;;;8.08;63.51
78825;BME280;68176;45.554;10.220;2024-01-27T03:30:26;100988.63;;;8.09;63.27
78825;BME280;68176;45.554;10.220;2024-01-27T03:32:56;100990.47;;;8.07;63.20
78825;BME280;68176;45.554;10.220;2024-01-27T03:35:25;100991.31;;;8.07;63.24
78825;BME280;68176;45.554;10.220;2024-01-27T03:37:56;100997.56;;;8.05;63.32
78825;BME280;68176;45.554;10.220;2024-01-27T03:40:26;101012.22;;;8.07;63.29
78825;BME280;68176;45.554;10.220;2024-01-27T03:42:56;101010.72;;;8.03;63.25
78825;BME280;68176;45.554;10.220;2024-01-27T03:45:26;101006.41;;;8.02;63.21
78825;BME280;68176;45.554;10.220;2024-01-27T03:47:56;101011.53;;;8.04;63.30
78825;BME280;68176;45.554;10.220;2024-01-27T03:50:26;101013.22;;;8.05;63.21
78825;BME280;68176;45.554;10.220;2024-01-27T03:52:56;101013.41;;;8.02;63.51
78825;BME280;68176;45.554;10.220;2024-01-27T03:55:26;101009.22;;;7.99;63.49
78825;BME280;68176;45.554;10.220;2024-01-27T03:57:56;101022.16;;;8.01;63.48
78825;BME280;68176;45.554;10.220;2024-01-27T04:00:26;101015.28;;;8.00;63.52
78825;BME280;68176;45.554;10.220;2024-01-27T04:02:56;101015.28;;;8.00;63.29
78825;BME280;68176;45.554;10.220;2024-01-27T04:05:27;101010.41;;;7.94;63.34
78825;BME280;68176;45.554;10.220;2024-01-27T04:07:56;101016.19;;;7.99;63.45
78825;BME280;68176;45.554;10.220;2024-01-27T04:10:26;101012.06;;;7.95;63.25
78825;BME280;68176;45.554;10.220;2024-01-27T04:12:56;101013.75;;;7.96;63.27
78825;BME280;68176;45.554;10.220;2024-01-27T04:15:26;101016.44;;;7.94;63.52
78825;BME280;68176;45.554;10.220;2024-01-27T04:17:56;101010.22;;;7.97;63.33
78825;BME280;68176;45.554;10.220;2024-01-27T04:20:26;101002.75;;;7.91;63.32
78825;BME280;68176;45.554;10.220;2024-01-27T04:22:56;101012.06;;;7.95;63.39
78825;BME280;68176;45.554;10.220;2024-01-27T04:25:26;101006.34;;;7.88;63.39
78825;BME280;68176;45.554;10.220;2024-01-27T04:27:56;101011.22;;;7.94;63.51
78825;BME280;68176;45.554;10.220;2024-01-27T04:30:26;101013.00;;;7.94;63.42
78825;BME280;68176;45.554;10.220;2024-01-27T04:32:56;101011.16;;;7.96;63.38
78825;BME280;68176;45.554;10.220;2024-01-27T04:35:26;101006.09;;;7.93;63.33
78825;BME280;68176;45.554;10.220;2024-01-27T04:37:56;101013.94;;;7.93;63.43
78825;BME280;68176;45.554;10.220;2024-01-27T04:40:26;101014.84;;;7.92;63.31
78825;BME280;68176;45.554;10.220;2024-01-27T04:42:56;101014.28;;;7.87;63.10
78825;BME280;68176;45.554;10.220;2024-01-27T04:45:26;101021.03;;;7.91;63.41
78825;BME280;68176;45.554;10.220;2024-01-27T04:47:56;101032.38;;;7.90;63.29
78825;BME280;68176;45.554;10.220;2024-01-27T04:50:26;101033.31;;;7.89;63.33
78825;BME280;68176;45.554;10.220;2024-01-27T04:52:56;101035.00;;;7.90;63.67
78825;BME280;68176;45.554;10.220;2024-01-27T04:55:26;101035.91;;;7.89;63.51
78825;BME280;68176;45.554;10.220;2024-01-27T04:57:56;101033.59;;;7.84;63.51
78825;BME280;68176;45.554;10.220;2024-01-27T05:00:26;101031.59;;;7.88;63.47
78825;BME280;68176;45.554;10.220;2024-01-27T05:02:56;101037.84;;;7.85;63.44
78825;BME280;68176;45.554;10.220;2024-01-27T05:05:26;101040.56;;;7.84;63.08
78825;BME280;68176;45.554;10.220;2024-01-27T05:07:56;101040.56;;;7.84;63.16
78825;BME280;68176;45.554;10.220;2024-01-27T05:10:26;101030.13;;;7.84;63.56
78825;BME280;68176;45.554;10.220;2024-01-27T05:12:56;101038.97;;;7.81;63.50
78825;BME280;68176;45.554;10.220;2024-01-27T05:15:26;101034.56;;;7.82;63.55
78825;BME280;68176;45.554;10.220;2024-01-27T05:17:56;101044.09;;;7.83;63.32
78825;BME280;68176;45.554;10.220;2024-01-27T05:20:26;101045.00;;;7.82;63.56
78825;BME280;68176;45.554;10.220;2024-01-27T05:22:56;101043.25;;;7.82;63.19
78825;BME280;68176;45.554;10.220;2024-01-27T05:25:26;101035.59;;;7.79;63.08
78825;BME280;68176;45.554;10.220;2024-01-27T05:27:56;101038.13;;;7.81;63.28
78825;BME280;68176;45.554;10.220;2024-01-27T05:30:26;101044.28;;;7.80;63.32
78825;BME280;68176;45.554;10.220;2024-01-27T05:32:59;101046.03;;;7.79;63.39
78825;BME280;68176;45.554;10.220;2024-01-27T05:35:26;101039.97;;;7.79;63.41
78825;BME280;68176;45.554;10.220;2024-01-27T05:37:56;101046.97;;;7.78;63.54
78825;BME280;68176;45.554;10.220;2024-01-27T05:40:26;101052.19;;;7.78;63.38
78825;BME280;68176;45.554;10.220;2024-01-27T05:42:56;101057.41;;;7.78;63.63
78825;BME280;68176;45.554;10.220;2024-01-27T05:45:26;101054.88;;;7.77;63.50
78825;BME280;68176;45.554;10.220;2024-01-27T05:47:56;101054.03;;;7.76;63.56
78825;BME280;68176;45.554;10.220;2024-01-27T05:50:26;101060.09;;;7.77;63.37
78825;BME280;68176;45.554;10.220;2024-01-27T05:52:56;101053.34;;;7.73;63.22
78825;BME280;68176;45.554;10.220;2024-01-27T05:55:26;101060.28;;;7.74;63.46
78825;BME280;68176;45.554;10.220;2024-01-27T05:57:57;101061.13;;;7.74;63.45
78825;BME280;68176;45.554;10.220;2024-01-27T06:00:26;101066.25;;;7.76;63.13
78825;BME280;68176;45.554;10.220;2024-01-27T06:02:56;101060.19;;;7.75;63.44
78825;BME280;68176;45.554;10.220;2024-01-27T06:05:26;101063.06;;;7.71;63.30
78825;BME280;68176;45.554;10.220;2024-01-27T06:07:56;101075.19;;;7.72;63.35
78825;BME280;68176;45.554;10.220;2024-01-27T06:10:26;101069.34;;;7.67;63.26
78825;BME280;68176;45.554;10.220;2024-01-27T06:12:57;101077.81;;;7.72;63.37
78825;BME280;68176;45.554;10.220;2024-01-27T06:15:27;101070.88;;;7.71;63.27
78825;BME280;68176;45.554;10.220;2024-01-27T06:17:56;101083.03;;;7.72;63.28
78825;BME280;68176;45.554;10.220;2024-01-27T06:20:27;101079.75;;;7.68;63.25
78825;BME280;68176;45.554;10.220;2024-01-27T06:22:56;101079.63;;;7.70;63.33
78825;BME280;68176;45.554;10.220;2024-01-27T06:25:27;101081.50;;;7.68;63.37
78825;BME280;68176;45.554;10.220;2024-01-27T06:27:56;101088.59;;;7.66;63.45
78825;BME280;68176;45.554;10.220;2024-01-27T06:30:27;101089.41;;;7.66;63.20
78825;BME280;68176;45.554;10.220;2024-01-27T06:32:56;101102.38;;;7.68;63.35
78825;BME280;68176;45.554;10.220;2024-01-27T06:35:27;101106.94;;;7.64;63.35
78825;BME280;68176;45.554;10.220;2024-01-27T06:37:56;101099.19;;;7.63;63.38
78825;BME280;68176;45.554;10.220;2024-01-27T06:40:27;101109.47;;;7.66;63.40
78825;BME280;68176;45.554;10.220;2024-01-27T06:42:56;101115.66;;;7.63;63.30
78825;BME280;68176;45.554;10.220;2024-01-27T06:45:27;101105.31;;;7.62;63.25
78825;BME280;68176;45.554;10.220;2024-01-27T06:47:57;101112.31;;;7.61;63.27
78825;BME280;68176;45.554;10.220;2024-01-27T06:50:27;101114.19;;;7.59;63.34
78825;BME280;68176;45.554;10.220;2024-01-27T06:52:57;101122.00;;;7.59;63.48
78825;BME280;68176;45.554;10.220;2024-01-27T06:55:27;101123.59;;;7.62;63.19
78825;BME280;68176;45.554;10.220;2024-01-27T06:57:57;101121.00;;;7.62;63.35
78825;BME280;68176;45.554;10.220;2024-01-27T07:00:27;101130.66;;;7.60;63.27
78825;BME280;68176;45.554;10.220;2024-01-27T07:02:58;101132.50;;;7.58;63.60
78825;BME280;68176;45.554;10.220;2024-01-27T07:05:27;101122.06;;;7.58;63.53
78825;BME280;68176;45.554;10.220;2024-01-27T07:07:56;101136.03;;;7.57;63.37
78825;BME280;68176;45.554;10.220;2024-01-27T07:10:27;101130.16;;;7.53;63.48
78825;BME280;68176;45.554;10.220;2024-01-27T07:12:57;101122.56;;;7.48;63.46
78825;BME280;68176;45.554;10.220;2024-01-27T07:15:27;101130.16;;;7.53;63.42
78825;BME280;68176;45.554;10.220;2024-01-27T07:17:57;101137.91;;;7.55;63.33
78825;BME280;68176;45.554;10.220;2024-01-27T07:20:30;101147.41;;;7.56;63.28
78825;BME280;68176;45.554;10.220;2024-01-27T07:22:57;101144.19;;;7.50;63.46
78825;BME280;68176;45.554;10.220;2024-01-27T07:25:27;101144.97;;;7.53;63.37
78825;BME280;68176;45.554;10.220;2024-01-27T07:27:57;101135.03;;;7.43;63.38
78825;BME280;68176;45.554;10.220;2024-01-27T07:30:27;101154.56;;;7.52;63.55
78825;BME280;68176;45.554;10.220;2024-01-27T07:32:57;101154.56;;;7.52;63.38
78825;BME280;68176;45.554;10.220;2024-01-27T07:35:27;101164.91;;;7.53;63.23
78825;BME280;68176;45.554;10.220;2024-01-27T07:37:57;101152.88;;;7.51;63.36
78825;BME280;68176;45.554;10.220;2024-01-27T07:40:27;101152.19;;;7.47;63.34
78825;BME280;68176;45.554;10.220;2024-01-27T07:42:57;101165.84;;;7.53;63.31
78825;BME280;68176;45.554;10.220;2024-01-27T07:45:27;101142.91;;;7.42;63.04
78825;BME280;68176;45.554;10.220;2024-01-27T07:47:57;101153.88;;;7.48;63.19
78825;BME280;68176;45.554;10.220;2024-01-27T07:50:27;101145.13;;;7.49;63.55
78825;BME280;68176;45.554;10.220;2024-01-27T07:52:57;101158.09;;;7.51;63.23
78825;BME280;68176;45.554;10.220;2024-01-27T07:55:27;101153.72;;;7.51;63.34
78825;BME280;68176;45.554;10.220;2024-01-27T07:57:57;101154.78;;;7.47;63.28
78825;BME280;68176;45.554;10.220;2024-01-27T08:00:27;101159.09;;;7.48;63.17
78825;BME280;68176;45.554;10.220;2024-01-27T08:02:57;101154.03;;;7.45;63.40
78825;BME280;68176;45.554;10.220;2024-01-27T08:05:27;101153.44;;;7.89;60.77
78825;BME280;68176;45.554;10.220;2024-01-27T08:07:57;101165.59;;;8.52;54.35
78825;BME280;68176;45.554;10.220;2024-01-27T08:10:27;101163.97;;;7.72;57.79
78825;BME280;68176;45.554;10.220;2024-01-27T08:12:57;101164.09;;;7.53;59.43
78825;BME280;68176;45.554;10.220;2024-01-27T08:15:27;101162.63;;;7.47;59.80
78825;BME280;68176;45.554;10.220;2024-01-27T08:17:57;101152.50;;;7.41;59.95
78825;BME280;68176;45.554;10.220;2024-01-27T08:20:30;101146.06;;;7.31;60.27
78825;BME280;68176;45.554;10.220;2024-01-27T08:22:57;101158.06;;;7.35;60.73
78825;BME280;68176;45.554;10.220;2024-01-27T08:25:27;101167.25;;;7.42;61.11
78825;BME280;68176;45.554;10.220;2024-01-27T08:27:57;101180.13;;;7.45;60.99
78825;BME280;68176;45.554;10.220;2024-01-27T08:30:27;101157.13;;;7.36;61.14
78825;BME280;68176;45.554;10.220;2024-01-27T08:32:57;101159.66;;;7.38;61.24
78825;BME280;68176;45.554;10.220;2024-01-27T08:35:27;101171.47;;;7.45;61.64
78825;BME280;68176;45.554;10.220;2024-01-27T08:37:57;101181.06;;;7.44;61.47
78825;BME280;68176;45.554;10.220;2024-01-27T08:40:27;101164.81;;;7.39;61.74
78825;BME280;68176;45.554;10.220;2024-01-27T08:42:57;101168.00;;;7.44;61.74
78825;BME280;68176;45.554;10.220;2024-01-27T08:45:27;101179.22;;;7.46;61.81
78825;BME280;68176;45.554;10.220;2024-01-27T08:47:58;101179.28;;;7.45;61.48
78825;BME280;68176;45.554;10.220;2024-01-27T08:50:30;101177.69;;;7.42;61.87
78825;BME280;68176;45.554;10.220;2024-01-27T08:52:57;101185.38;;;7.45;62.00
78825;BME280;68176;45.554;10.220;2024-01-27T08:55:27;101178.44;;;7.44;61.83
78825;BME280;68176;45.554;10.220;2024-01-27T08:57:57;101182.00;;;7.43;62.13
78825;BME280;68176;45.554;10.220;2024-01-27T09:00:27;101177.09;;;7.37;62.07
78825;BME280;68176;45.554;10.220;2024-01-27T09:02:57;101174.50;;;7.37;62.16
78825;BME280;68176;45.554;10.220;2024-01-27T09:05:40;101168.16;;;7.41;62.02
78825;BME280;68176;45.554;10.220;2024-01-27T09:08:09;101177.84;;;7.39;61.91
78825;BME280;68176;45.554;10.220;2024-01-27T09:10:34;101184.44;;;7.46;61.95
78825;BME280;68176;45.554;10.220;2024-01-27T09:13:03;101197.88;;;7.22;61.00
78825;BME280;68176;45.554;10.220;2024-01-27T09:15:32;101196.22;;;7.21;61.37
78825;BME280;68176;45.554;10.220;2024-01-27T09:18:02;101205.50;;;7.26;61.59
78825;BME280;68176;45.554;10.220;2024-01-27T09:20:33;101215.78;;;7.29;61.55
78825;BME280;68176;45.554;10.220;2024-01-27T09:23:03;101200.13;;;7.29;61.59
78825;BME280;68176;45.554;10.220;2024-01-27T09:25:32;101202.50;;;7.34;61.67
78825;BME280;68176;45.554;10.220;2024-01-27T09:28:02;101208.41;;;7.37;61.48
78825;BME280;68176;45.554;10.220;2024-01-27T09:30:33;101187.06;;;7.29;61.90
78825;BME280;68176;45.554;10.220;2024-01-27T09:33:02;101223.91;;;7.40;61.95
78825;BME280;68176;45.554;10.220;2024-01-27T09:35:33;101204.84;;;7.38;61.54
78825;BME280;68176;45.554;10.220;2024-01-27T09:38:03;101198.47;;;7.44;61.57
78825;BME280;68176;45.554;10.220;2024-01-27T09:40:33;101207.16;;;7.44;61.90
78825;BME280;68176;45.554;10.220;2024-01-27T09:43:03;101188.13;;;7.42;61.57
78825;BME280;68176;45.554;10.220;2024-01-27T09:45:34;101197.19;;;7.53;61.73
78825;BME280;68176;45.554;10.220;2024-01-27T09:48:03;101197.19;;;7.53;61.55
78825;BME280;68176;45.554;10.220;2024-01-27T09:50:34;101205.38;;;7.62;61.46
78825;BME280;68176;45.554;10.220;2024-01-27T09:53:03;101191.31;;;7.65;61.48
78825;BME280;68176;45.554;10.220;2024-01-27T09:55:33;101199.72;;;7.70;61.44
78825;BME280;68176;45.554;10.220;2024-01-27T09:58:03;101210.00;;;7.73;61.46
78825;BME280;68176;45.554;10.220;2024-01-27T10:00:35;101183.75;;;7.76;61.11
78825;BME280;68176;45.554;10.220;2024-01-27T10:03:04;101190.50;;;7.80;61.45
78825;BME280;68176;45.554;10.220;2024-01-27T10:05:33;101209.19;;;7.88;61.24
78825;BME280;68176;45.554;10.220;2024-01-27T10:08:06;101201.81;;;7.96;60.92
78825;BME280;68176;45.554;10.220;2024-01-27T10:10:33;101191.19;;;7.99;60.99
78825;BME280;68176;45.554;10.220;2024-01-27T10:13:03;101192.13;;;7.98;61.28
78825;BME280;68176;45.554;10.220;2024-01-27T10:15:33;101207.63;;;8.01;60.91
78825;BME280;68176;45.554;10.220;2024-01-27T10:18:07;101189.50;;;7.98;61.20
78825;BME280;68176;45.554;10.220;2024-01-27T10:20:33;101203.88;;;8.07;60.99
78825;BME280;68176;45.554;10.220;2024-01-27T10:23:13;101191.19;;;7.99;61.02
78825;BME280;68176;45.554;10.220;2024-01-27T10:25:39;101211.44;;;8.11;61.18
78825;BME280;68176;45.554;10.220;2024-01-27T10:28:08;101201.16;;;8.08;61.20
78825;BME280;68176;45.554;10.220;2024-01-27T10:30:34;101187.50;;;8.03;61.11
78825;BME280;68176;45.554;10.220;2024-01-27T10:33:03;101225.25;;;8.13;61.45
78825;BME280;68176;45.554;10.220;2024-01-27T10:35:33;101204.34;;;8.13;61.12
78825;BME280;68176;45.554;10.220;2024-01-27T10:38:03;101196.78;;;8.24;61.10
78825;BME280;68176;45.554;10.220;2024-01-27T10:40:34;101202.00;;;8.24;61.23
78825;BME280;68176;45.554;10.220;2024-01-27T10:43:08;101209.75;;;8.26;61.14
78825;BME280;68176;45.554;10.220;2024-01-27T10:45:37;101209.69;;;8.27;61.11
78825;BME280;68176;45.554;10.220;2024-01-27T10:48:05;101215.34;;;8.35;61.05
78825;BME280;68176;45.554;10.220;2024-01-27T10:50:40;101199.66;;;8.35;60.86
78825;BME280;68176;45.554;10.220;2024-01-27T10:53:09;101201.19;;;8.39;61.08
78825;BME280;68176;45.554;10.220;2024-01-27T10:55:42;101199.09;;;8.30;61.02
78825;BME280;68176;45.554;10.220;2024-01-27T10:58:10;101193.28;;;8.41;61.38
78825;BME280;68176;45.554;10.220;2024-01-27T11:00:38;101196.75;;;8.41;60.94
78825;BME280;68176;45.554;10.220;2024-01-27T11:03:06;101220.09;;;8.44;61.30
78825;BME280;68176;45.554;10.220;2024-01-27T11:05:35;101211.13;;;8.48;61.31
78825;BME280;68176;45.554;10.220;2024-01-27T11:08:05;101199.34;;;8.41;61.63
78825;BME280;68176;45.554;10.220;2024-01-27T11:10:34;101216.69;;;8.42;61.85
78825;BME280;68176;45.554;10.220;2024-01-27T11:13:04;101187.19;;;8.40;62.02
78825;BME280;68176;45.554;10.220;2024-01-27T11:15:34;101190.72;;;8.39;62.08
78825;BME280;68176;45.554;10.220;2024-01-27T11:18:04;101205.34;;;8.43;62.07
78825;BME280;68176;45.554;10.220;2024-01-27T11:20:34;101181.13;;;8.40;62.16
78825;BME280;68176;45.554;10.220;2024-01-27T11:23:11;101203.22;;;8.50;62.28
78825;BME280;68176;45.554;10.220;2024-01-27T11:25:39;101188.72;;;8.44;62.17
78825;BME280;68176;45.554;10.220;2024-01-27T11:30:39;101191.91;;;8.49;62.45
78825;BME280;68176;45.554;10.220;2024-01-27T11:33:05;101196.91;;;8.54;62.32
78825;BME280;68176;45.554;10.220;2024-01-27T11:35:34;101188.03;;;8.56;62.61
78825;BME280;68176;45.554;10.220;2024-01-27T11:38:04;101176.06;;;8.52;62.50
78825;BME280;68176;45.554;10.220;2024-01-27T11:40:44;101187.88;;;8.60;62.34
78825;BME280;68176;45.554;10.220;2024-01-27T11:43:12;101191.03;;;8.65;62.61
78825;BME280;68176;45.554;10.220;2024-01-27T11:45:39;101171.66;;;8.69;62.88
78825;BME280;68176;45.554;10.220;2024-01-27T11:48:05;101190.69;;;8.71;62.22
78825;BME280;68176;45.554;10.220;2024-01-27T11:50:34;101196.34;;;8.79;62.53
78825;BME280;68176;45.554;10.220;2024-01-27T11:53:04;101180.72;;;8.77;62.38
78825;BME280;68176;45.554;10.220;2024-01-27T11:55:34;101182.06;;;8.84;62.59
78825;BME280;68176;45.554;10.220;2024-01-27T11:58:04;101176.00;;;8.84;62.62
78825;BME280;68176;45.554;10.220;2024-01-27T12:00:34;101179.34;;;8.86;62.78
78825;BME280;68176;45.554;10.220;2024-01-27T12:03:04;101180.13;;;8.88;62.77
78825;BME280;68176;45.554;10.220;2024-01-27T12:05:34;101175.44;;;8.93;62.92
78825;BME280;68176;45.554;10.220;2024-01-27T12:08:07;101177.91;;;8.96;62.57
78825;BME280;68176;45.554;10.220;2024-01-27T12:10:34;101181.84;;;9.03;62.62
78825;BME280;68176;45.554;10.220;2024-01-27T12:13:04;101179.16;;;9.04;62.70
78825;BME280;68176;45.554;10.220;2024-01-27T12:15:35;101173.81;;;9.06;62.73
78825;BME280;68176;45.554;10.220;2024-01-27T12:18:04;101176.25;;;9.09;62.63
78825;BME280;68176;45.554;10.220;2024-01-27T12:20:34;101169.91;;;9.13;62.61
78825;BME280;68176;45.554;10.220;2024-01-27T12:25:34;101172.16;;;9.19;62.71
78825;BME280;68176;45.554;10.220;2024-01-27T12:28:08;101172.06;;;9.21;62.89
78825;BME280;68176;45.554;10.220;2024-01-27T12:30:34;101166.94;;;9.19;62.92
78825;BME280;68176;45.554;10.220;2024-01-27T12:33:09;101170.09;;;9.24;62.83
78825;BME280;68176;45.554;10.220;2024-01-27T12:35:35;101147.69;;;9.20;62.97
78825;BME280;68176;45.554;10.220;2024-01-27T12:38:07;101161.31;;;9.25;63.11
78825;BME280;68176;45.554;10.220;2024-01-27T12:40:35;101151.13;;;9.21;63.15
78825;BME280;68176;45.554;10.220;2024-01-27T12:43:04;101145.44;;;9.28;63.14
78825;BME280;68176;45.554;10.220;2024-01-27T12:45:35;101159.25;;;9.30;63.14
78825;BME280;68176;45.554;10.220;2024-01-27T12:48:05;101154.88;;;9.31;63.38
78825;BME280;68176;45.554;10.220;2024-01-27T12:50:38;101155.34;;;9.37;63.31
78825;BME280;68176;45.554;10.220;2024-01-27T12:53:04;101154.25;;;9.41;63.37
78825;BME280;68176;45.554;10.220;2024-01-27T12:55:34;101151.63;;;9.41;63.18
78825;BME280;68176;45.554;10.220;2024-01-27T12:58:05;101146.22;;;9.44;63.39
78825;BME280;68176;45.554;10.220;2024-01-27T13:00:34;101159.84;;;9.49;63.56
78825;BME280;68176;45.554;10.220;2024-01-27T13:03:04;101162.28;;;9.52;63.47
78825;BME280;68176;45.554;10.220;2024-01-27T13:05:35;101150.88;;;9.53;63.60
78825;BME280;68176;45.554;10.220;2024-01-27T13:08:05;101151.44;;;9.58;63.63